sensor_id;sensor_type;location;lat;lon;timestamp;P1;P2;P0
65383;PMS5003;51986;52.788;41.368;2023-05-29T00:02:11;37.50;31.00;25.00
65383;PMS5003;51986;52.788;41.368;2023-05-29T00:04:38;36.50;30.00;23.50
65383;PMS5003;51986;52.788;41.368;2023-05-29T00:07:05;37.00;31.00;25.00
65383;PMS5003;51986;52.788;41.368;2023-05-29T00:09:32;37.00;31.00;25.00
65383;PMS5003;51986;52.788;41.368;2023-05-29T00:11:59;37.00;31.00;25.00
65383;PMS5003;51986;52.788;41.368;2023-05-29T00:14:26;36.25;31.00;25.00
65383;PMS5003;51986;52.788;41.368;2023-05-29T00:16:53;36.00;31.00;26.00
65383;PMS5003;51986;52.788;41.368;2023-05-29T00:19:20;37.00;31.00;25.00
65383;PMS5003;51986;52.788;41.368;2023-05-29T00:21:47;37.00;30.50;24.50
65383;PMS5003;51986;52.788;41.368;2023-05-29T00:24:14;38.00;31.00;25.00
65383;PMS5003;51986;52.788;41.368;2023-05-29T00:26:42;37.00;31.00;25.00
65383;PMS5003;51986;52.788;41.368;2023-05-29T00:29:09;38.00;31.00;25.50
65383;PMS5003;51986;52.788;41.368;2023-05-29T00:31:36;35.00;30.00;24.50
65383;PMS5003;51986;52.788;41.368;2023-05-29T00:34:04;36.50;31.00;25.00
65383;PMS5003;51986;52.788;41.368;2023-05-29T00:36:32;37.00;32.00;25.00
65383;PMS5003;51986;52.788;41.368;2023-05-29T00:39:00;37.00;31.00;25.00
65383;PMS5003;51986;52.788;41.368;2023-05-29T00:41:27;38.00;32.00;25.00
65383;PMS5003;51986;52.788;41.368;2023-05-29T00:43:54;36.00;30.00;24.00
65383;PMS5003;51986;52.788;41.368;2023-05-29T00:46:21;36.00;31.00;24.00
65383;PMS5003;51986;52.788;41.368;2023-05-29T00:48:49;37.00;31.00;24.50
65383;PMS5003;51986;52.788;41.368;2023-05-29T00:51:16;36.75;30.00;24.00
65383;PMS5003;51986;52.788;41.368;2023-05-29T00:53:43;38.00;31.00;25.00
65383;PMS5003;51986;52.788;41.368;2023-05-29T00:56:11;35.50;29.50;22.50
65383;PMS5003;51986;52.788;41.368;2023-05-29T00:58:39;35.50;30.00;23.00
65383;PMS5003;51986;52.788;41.368;2023-05-29T01:01:08;36.75;31.00;24.50
65383;PMS5003;51986;52.788;41.368;2023-05-29T01:03:35;37.00;32.00;24.00
65383;PMS5003;51986;52.788;41.368;2023-05-29T01:06:03;36.00;31.00;24.00
65383;PMS5003;51986;52.788;41.368;2023-05-29T01:08:30;34.50;29.50;23.50
65383;PMS5003;51986;52.788;41.368;2023-05-29T01:10:59;37.50;30.50;24.00
65383;PMS5003;51986;52.788;41.368;2023-05-29T01:13:54;37.00;31.00;25.00
65383;PMS5003;51986;52.788;41.368;2023-05-29T01:16:45;36.50;31.00;25.00
65383;PMS5003;51986;52.788;41.368;2023-05-29T01:24:49;36.50;29.50;24.00
65383;PMS5003;51986;52.788;41.368;2023-05-29T01:27:18;37.50;30.00;24.50
65383;PMS5003;51986;52.788;41.368;2023-05-29T01:29:48;39.00;32.00;25.00
65383;PMS5003;51986;52.788;41.368;2023-05-29T01:32:18;38.00;31.00;25.00
65383;PMS5003;51986;52.788;41.368;2023-05-29T01:34:46;36.50;30.75;24.50
65383;PMS5003;51986;52.788;41.368;2023-05-29T01:37:13;36.00;31.00;25.00
65383;PMS5003;51986;52.788;41.368;2023-05-29T01:39:40;37.00;31.25;24.25
65383;PMS5003;51986;52.788;41.368;2023-05-29T01:42:07;37.00;31.00;25.00
65383;PMS5003;51986;52.788;41.368;2023-05-29T01:44:35;37.00;31.00;25.00
65383;PMS5003;51986;52.788;41.368;2023-05-29T01:47:04;36.50;30.50;24.50
65383;PMS5003;51986;52.788;41.368;2023-05-29T01:49:33;38.50;32.50;25.00
65383;PMS5003;51986;52.788;41.368;2023-05-29T01:52:03;38.00;32.00;25.00
65383;PMS5003;51986;52.788;41.368;2023-05-29T01:54:30;39.00;32.00;25.50
65383;PMS5003;51986;52.788;41.368;2023-05-29T01:56:58;38.00;32.00;25.00
65383;PMS5003;51986;52.788;41.368;2023-05-29T01:59:26;37.50;31.00;26.00
65383;PMS5003;51986;52.788;41.368;2023-05-29T02:01:54;38.00;31.00;25.25
65383;PMS5003;51986;52.788;41.368;2023-05-29T02:04:21;39.00;32.00;25.00
65383;PMS5003;51986;52.788;41.368;2023-05-29T02:06:48;36.50;30.50;24.00
65383;PMS5003;51986;52.788;41.368;2023-05-29T02:09:16;38.00;32.00;25.00
65383;PMS5003;51986;52.788;41.368;2023-05-29T02:11:43;37.25;31.00;24.75
65383;PMS5003;51986;52.788;41.368;2023-05-29T02:14:10;38.00;31.00;25.00
65383;PMS5003;51986;52.788;41.368;2023-05-29T02:16:37;38.00;31.00;25.50
65383;PMS5003;51986;52.788;41.368;2023-05-29T02:19:04;38.00;32.00;26.00
65383;PMS5003;51986;52.788;41.368;2023-05-29T02:21:32;37.50;31.00;25.00
65383;PMS5003;51986;52.788;41.368;2023-05-29T02:23:59;36.50;31.00;25.00
65383;PMS5003;51986;52.788;41.368;2023-05-29T02:26:26;37.00;31.25;25.00
65383;PMS5003;51986;52.788;41.368;2023-05-29T02:28:53;37.00;31.25;24.00
65383;PMS5003;51986;52.788;41.368;2023-05-29T02:31:20;37.00;31.00;24.00
65383;PMS5003;51986;52.788;41.368;2023-05-29T02:33:47;37.00;31.00;25.00
65383;PMS5003;51986;52.788;41.368;2023-05-29T02:36:15;37.00;31.00;26.00
65383;PMS5003;51986;52.788;41.368;2023-05-29T02:38:41;37.50;31.50;25.00
65383;PMS5003;51986;52.788;41.368;2023-05-29T02:41:09;36.50;31.50;25.00
65383;PMS5003;51986;52.788;41.368;2023-05-29T02:43:36;38.25;32.00;26.00
65383;PMS5003;51986;52.788;41.368;2023-05-29T02:46:03;39.00;33.00;26.00
65383;PMS5003;51986;52.788;41.368;2023-05-29T02:48:30;40.25;33.75;26.75
65383;PMS5003;51986;52.788;41.368;2023-05-29T02:50:57;40.25;34.00;26.00
65383;PMS5003;51986;52.788;41.368;2023-05-29T02:53:24;40.00;34.00;27.00
65383;PMS5003;51986;52.788;41.368;2023-05-29T02:55:51;40.75;34.00;27.75
65383;PMS5003;51986;52.788;41.368;2023-05-29T02:58:20;40.00;34.00;28.00
65383;PMS5003;51986;52.788;41.368;2023-05-29T03:00:47;41.00;34.00;28.50
65383;PMS5003;51986;52.788;41.368;2023-05-29T03:03:14;41.00;34.00;28.25
65383;PMS5003;51986;52.788;41.368;2023-05-29T03:05:41;41.00;35.00;28.00
65383;PMS5003;51986;52.788;41.368;2023-05-29T03:08:08;40.00;34.00;27.50
65383;PMS5003;51986;52.788;41.368;2023-05-29T03:10:35;40.50;34.50;28.00
65383;PMS5003;51986;52.788;41.368;2023-05-29T03:13:02;40.50;35.00;28.00
65383;PMS5003;51986;52.788;41.368;2023-05-29T03:15:29;41.50;35.00;28.75
65383;PMS5003;51986;52.788;41.368;2023-05-29T03:17:56;44.00;37.00;30.00
65383;PMS5003;51986;52.788;41.368;2023-05-29T03:20:27;44.00;37.00;30.00
65383;PMS5003;51986;52.788;41.368;2023-05-29T03:22:56;44.00;36.00;30.00
65383;PMS5003;51986;52.788;41.368;2023-05-29T03:25:23;43.00;36.50;29.00
65383;PMS5003;51986;52.788;41.368;2023-05-29T03:27:50;43.50;36.00;29.00
65383;PMS5003;51986;52.788;41.368;2023-05-29T03:30:19;43.00;36.00;28.00
65383;PMS5003;51986;52.788;41.368;2023-05-29T03:32:47;43.00;36.00;29.00
65383;PMS5003;51986;52.788;41.368;2023-05-29T03:35:15;43.00;36.00;28.00
65383;PMS5003;51986;52.788;41.368;2023-05-29T03:37:43;42.25;36.00;29.00
65383;PMS5003;51986;52.788;41.368;2023-05-29T03:40:11;43.25;36.00;30.00
65383;PMS5003;51986;52.788;41.368;2023-05-29T03:42:38;43.00;36.00;29.00
65383;PMS5003;51986;52.788;41.368;2023-05-29T03:45:06;44.00;36.00;29.25
65383;PMS5003;51986;52.788;41.368;2023-05-29T03:47:36;43.00;36.00;29.00
65383;PMS5003;51986;52.788;41.368;2023-05-29T03:50:04;43.00;37.00;29.00
65383;PMS5003;51986;52.788;41.368;2023-05-29T03:52:34;43.00;36.00;30.00
65383;PMS5003;51986;52.788;41.368;2023-05-29T03:55:02;43.00;36.00;29.00
65383;PMS5003;51986;52.788;41.368;2023-05-29T03:57:29;44.00;37.00;30.00
65383;PMS5003;51986;52.788;41.368;2023-05-29T03:59:56;43.00;36.00;29.50
65383;PMS5003;51986;52.788;41.368;2023-05-29T04:02:23;44.00;37.00;31.00
65383;PMS5003;51986;52.788;41.368;2023-05-29T04:04:51;43.00;36.00;30.00
65383;PMS5003;51986;52.788;41.368;2023-05-29T04:07:18;44.00;36.25;29.00
65383;PMS5003;51986;52.788;41.368;2023-05-29T04:09:45;43.00;36.00;30.00
65383;PMS5003;51986;52.788;41.368;2023-05-29T04:12:12;43.00;36.75;29.00
65383;PMS5003;51986;52.788;41.368;2023-05-29T04:14:39;43.00;36.00;30.00
65383;PMS5003;51986;52.788;41.368;2023-05-29T04:17:06;43.00;36.00;30.00
65383;PMS5003;51986;52.788;41.368;2023-05-29T04:19:51;43.50;36.00;28.50
65383;PMS5003;51986;52.788;41.368;2023-05-29T04:22:37;44.00;35.00;29.00
65383;PMS5003;51986;52.788;41.368;2023-05-29T04:25:04;43.00;36.00;28.25
65383;PMS5003;51986;52.788;41.368;2023-05-29T04:27:32;43.00;36.00;29.00
65383;PMS5003;51986;52.788;41.368;2023-05-29T04:29:59;43.00;36.00;31.00
65383;PMS5003;51986;52.788;41.368;2023-05-29T04:32:32;43.00;36.00;30.00
65383;PMS5003;51986;52.788;41.368;2023-05-29T04:35:17;44.00;36.50;30.00
65383;PMS5003;51986;52.788;41.368;2023-05-29T04:37:53;44.00;36.25;29.50
65383;PMS5003;51986;52.788;41.368;2023-05-29T04:40:20;43.00;36.00;30.00
65383;PMS5003;51986;52.788;41.368;2023-05-29T04:42:49;42.00;35.00;29.00
65383;PMS5003;51986;52.788;41.368;2023-05-29T04:45:16;42.00;35.00;29.00
65383;PMS5003;51986;52.788;41.368;2023-05-29T04:47:46;41.25;35.00;28.50
65383;PMS5003;51986;52.788;41.368;2023-05-29T04:50:32;42.00;35.00;29.00
65383;PMS5003;51986;52.788;41.368;2023-05-29T04:52:59;42.00;35.00;28.00
65383;PMS5003;51986;52.788;41.368;2023-05-29T04:55:44;41.00;35.00;28.75
65383;PMS5003;51986;52.788;41.368;2023-05-29T04:58:11;41.00;35.00;28.00
65383;PMS5003;51986;52.788;41.368;2023-05-29T05:00:40;41.00;35.00;28.00
65383;PMS5003;51986;52.788;41.368;2023-05-29T05:03:07;41.00;35.00;27.00
65383;PMS5003;51986;52.788;41.368;2023-05-29T05:05:34;39.50;33.50;26.00
65383;PMS5003;51986;52.788;41.368;2023-05-29T05:08:01;40.50;34.00;28.00
65383;PMS5003;51986;52.788;41.368;2023-05-29T05:10:28;40.00;34.00;28.50
65383;PMS5003;51986;52.788;41.368;2023-05-29T05:12:56;40.00;34.00;28.50
65383;PMS5003;51986;52.788;41.368;2023-05-29T05:15:23;40.00;34.00;28.00
65383;PMS5003;51986;52.788;41.368;2023-05-29T05:17:50;39.00;33.50;27.00
65383;PMS5003;51986;52.788;41.368;2023-05-29T05:20:17;39.00;33.00;27.00
65383;PMS5003;51986;52.788;41.368;2023-05-29T05:22:51;39.00;34.00;27.00
65383;PMS5003;51986;52.788;41.368;2023-05-29T05:25:18;40.50;34.00;28.00
65383;PMS5003;51986;52.788;41.368;2023-05-29T05:27:46;41.50;34.50;29.00
65383;PMS5003;51986;52.788;41.368;2023-05-29T05:30:33;42.00;35.50;29.00
65383;PMS5003;51986;52.788;41.368;2023-05-29T05:33:00;42.00;35.00;29.00
65383;PMS5003;51986;52.788;41.368;2023-05-29T05:35:28;41.00;34.00;28.00
65383;PMS5003;51986;52.788;41.368;2023-05-29T05:37:55;41.00;34.00;27.00
65383;PMS5003;51986;52.788;41.368;2023-05-29T05:40:22;41.00;34.00;27.50
65383;PMS5003;51986;52.788;41.368;2023-05-29T05:42:56;41.00;34.00;28.00
65383;PMS5003;51986;52.788;41.368;2023-05-29T05:45:43;41.00;34.00;28.00
65383;PMS5003;51986;52.788;41.368;2023-05-29T05:48:11;40.00;34.00;27.00
65383;PMS5003;51986;52.788;41.368;2023-05-29T05:50:39;40.50;34.00;27.50
65383;PMS5003;51986;52.788;41.368;2023-05-29T05:53:06;41.00;34.00;28.00
65383;PMS5003;51986;52.788;41.368;2023-05-29T05:55:33;39.50;34.00;28.00
65383;PMS5003;51986;52.788;41.368;2023-05-29T05:58:01;40.00;34.00;28.00
65383;PMS5003;51986;52.788;41.368;2023-05-29T06:00:28;40.00;33.00;27.00
65383;PMS5003;51986;52.788;41.368;2023-05-29T06:02:56;38.00;32.00;26.00
65383;PMS5003;51986;52.788;41.368;2023-05-29T06:05:37;40.00;34.00;27.50
65383;PMS5003;51986;52.788;41.368;2023-05-29T06:08:05;40.00;34.00;28.00
65383;PMS5003;51986;52.788;41.368;2023-05-29T06:10:32;40.50;34.50;28.00
65383;PMS5003;51986;52.788;41.368;2023-05-29T06:12:59;41.00;34.00;28.00
65383;PMS5003;51986;52.788;41.368;2023-05-29T06:15:39;40.00;34.00;28.00
65383;PMS5003;51986;52.788;41.368;2023-05-29T06:18:06;40.00;34.00;27.50
65383;PMS5003;51986;52.788;41.368;2023-05-29T06:20:33;40.00;34.00;28.00
65383;PMS5003;51986;52.788;41.368;2023-05-29T06:23:02;39.50;34.00;27.50
65383;PMS5003;51986;52.788;41.368;2023-05-29T06:25:29;40.00;34.00;27.50
65383;PMS5003;51986;52.788;41.368;2023-05-29T06:27:56;40.75;34.75;28.00
65383;PMS5003;51986;52.788;41.368;2023-05-29T06:30:24;40.00;34.00;28.00
65383;PMS5003;51986;52.788;41.368;2023-05-29T06:32:51;40.00;33.50;27.50
65383;PMS5003;51986;52.788;41.368;2023-05-29T06:35:23;40.00;34.00;27.50
65383;PMS5003;51986;52.788;41.368;2023-05-29T06:37:50;41.00;35.00;28.00
65383;PMS5003;51986;52.788;41.368;2023-05-29T06:40:17;41.75;35.00;28.00
65383;PMS5003;51986;52.788;41.368;2023-05-29T06:42:44;40.25;34.00;28.00
65383;PMS5003;51986;52.788;41.368;2023-05-29T06:45:14;40.25;34.00;28.00
65383;PMS5003;51986;52.788;41.368;2023-05-29T06:47:44;40.00;34.00;28.00
65383;PMS5003;51986;52.788;41.368;2023-05-29T06:50:11;40.00;34.00;28.00
65383;PMS5003;51986;52.788;41.368;2023-05-29T06:52:39;39.00;34.00;27.00
65383;PMS5003;51986;52.788;41.368;2023-05-29T06:55:24;40.00;34.00;27.50
65383;PMS5003;51986;52.788;41.368;2023-05-29T06:57:54;40.00;34.00;28.00
65383;PMS5003;51986;52.788;41.368;2023-05-29T07:00:24;40.00;34.00;28.00
65383;PMS5003;51986;52.788;41.368;2023-05-29T07:03:13;41.00;34.00;27.00
65383;PMS5003;51986;52.788;41.368;2023-05-29T07:05:41;40.00;34.00;27.50
65383;PMS5003;51986;52.788;41.368;2023-05-29T07:08:08;40.00;34.00;27.00
65383;PMS5003;51986;52.788;41.368;2023-05-29T07:10:35;40.00;34.00;27.50
65383;PMS5003;51986;52.788;41.368;2023-05-29T07:13:02;39.50;34.00;27.00
65383;PMS5003;51986;52.788;41.368;2023-05-29T07:15:29;38.75;32.50;26.50
65383;PMS5003;51986;52.788;41.368;2023-05-29T07:17:56;40.00;33.50;27.00
65383;PMS5003;51986;52.788;41.368;2023-05-29T07:20:25;41.25;35.00;28.25
65383;PMS5003;51986;52.788;41.368;2023-05-29T07:23:11;41.00;34.00;29.00
65383;PMS5003;51986;52.788;41.368;2023-05-29T07:25:38;41.00;34.00;28.50
65383;PMS5003;51986;52.788;41.368;2023-05-29T07:28:05;40.00;34.00;28.00
65383;PMS5003;51986;52.788;41.368;2023-05-29T07:30:48;40.50;34.00;27.50
65383;PMS5003;51986;52.788;41.368;2023-05-29T07:33:15;40.00;34.00;27.00
65383;PMS5003;51986;52.788;41.368;2023-05-29T07:35:43;39.75;33.00;27.00
65383;PMS5003;51986;52.788;41.368;2023-05-29T07:38:10;38.50;33.00;26.00
65383;PMS5003;51986;52.788;41.368;2023-05-29T07:40:39;38.00;32.50;26.00
65383;PMS5003;51986;52.788;41.368;2023-05-29T07:43:31;39.00;32.50;26.00
65383;PMS5003;51986;52.788;41.368;2023-05-29T07:46:02;39.50;34.00;27.50
65383;PMS5003;51986;52.788;41.368;2023-05-29T07:48:30;38.50;33.00;27.00
65383;PMS5003;51986;52.788;41.368;2023-05-29T07:50:58;38.00;33.00;27.00
65383;PMS5003;51986;52.788;41.368;2023-05-29T07:53:29;39.00;33.00;27.00
65383;PMS5003;51986;52.788;41.368;2023-05-29T07:55:57;38.50;33.00;27.00
65383;PMS5003;51986;52.788;41.368;2023-05-29T07:58:24;39.25;33.50;27.00
65383;PMS5003;51986;52.788;41.368;2023-05-29T08:00:51;40.50;33.50;27.50
65383;PMS5003;51986;52.788;41.368;2023-05-29T08:03:19;41.00;34.00;28.00
65383;PMS5003;51986;52.788;41.368;2023-05-29T08:05:49;40.25;33.50;27.50
65383;PMS5003;51986;52.788;41.368;2023-05-29T08:08:17;40.00;33.50;27.50
65383;PMS5003;51986;52.788;41.368;2023-05-29T08:10:44;38.50;33.00;27.00
65383;PMS5003;51986;52.788;41.368;2023-05-29T08:13:12;37.75;32.00;25.50
65383;PMS5003;51986;52.788;41.368;2023-05-29T08:15:57;40.00;34.00;28.00
65383;PMS5003;51986;52.788;41.368;2023-05-29T08:18:25;41.00;34.00;28.00
65383;PMS5003;51986;52.788;41.368;2023-05-29T08:20:52;40.50;34.00;28.50
65383;PMS5003;51986;52.788;41.368;2023-05-29T08:23:20;40.50;34.00;28.00
65383;PMS5003;51986;52.788;41.368;2023-05-29T08:25:47;40.00;33.50;27.00
65383;PMS5003;51986;52.788;41.368;2023-05-29T08:28:15;39.00;33.00;26.00
65383;PMS5003;51986;52.788;41.368;2023-05-29T08:30:42;41.00;33.25;27.00
65383;PMS5003;51986;52.788;41.368;2023-05-29T08:33:10;40.00;33.00;27.00
65383;PMS5003;51986;52.788;41.368;2023-05-29T08:35:37;40.00;33.00;27.25
65383;PMS5003;51986;52.788;41.368;2023-05-29T08:38:04;41.00;34.00;28.00
65383;PMS5003;51986;52.788;41.368;2023-05-29T08:40:31;41.50;34.00;28.00
65383;PMS5003;51986;52.788;41.368;2023-05-29T08:45:59;40.50;34.25;28.25
65383;PMS5003;51986;52.788;41.368;2023-05-29T08:48:29;40.50;34.00;28.00
65383;PMS5003;51986;52.788;41.368;2023-05-29T08:50:58;40.50;34.00;28.00
65383;PMS5003;51986;52.788;41.368;2023-05-29T08:53:27;40.00;33.50;27.00
65383;PMS5003;51986;52.788;41.368;2023-05-29T08:55:54;40.25;33.00;26.50
65383;PMS5003;51986;52.788;41.368;2023-05-29T08:58:21;40.50;34.00;28.00
65383;PMS5003;51986;52.788;41.368;2023-05-29T09:00:49;41.00;34.00;28.00
65383;PMS5003;51986;52.788;41.368;2023-05-29T09:03:17;39.50;34.00;27.00
65383;PMS5003;51986;52.788;41.368;2023-05-29T09:05:44;40.00;33.50;27.00
65383;PMS5003;51986;52.788;41.368;2023-05-29T09:08:12;40.50;34.00;28.00
65383;PMS5003;51986;52.788;41.368;2023-05-29T09:10:40;42.00;34.00;28.00
65383;PMS5003;51986;52.788;41.368;2023-05-29T09:13:11;41.00;35.00;27.00
65383;PMS5003;51986;52.788;41.368;2023-05-29T09:15:39;40.50;34.00;28.00
65383;PMS5003;51986;52.788;41.368;2023-05-29T09:18:07;39.00;33.00;26.00
65383;PMS5003;51986;52.788;41.368;2023-05-29T09:20:34;39.00;33.00;27.00
65383;PMS5003;51986;52.788;41.368;2023-05-29T09:23:03;38.25;33.00;26.50
65383;PMS5003;51986;52.788;41.368;2023-05-29T09:25:32;39.00;33.00;27.00
65383;PMS5003;51986;52.788;41.368;2023-05-29T09:28:04;40.00;34.00;28.00
65383;PMS5003;51986;52.788;41.368;2023-05-29T09:30:46;39.00;34.00;28.00
65383;PMS5003;51986;52.788;41.368;2023-05-29T09:33:14;41.25;34.75;27.50
65383;PMS5003;51986;52.788;41.368;2023-05-29T09:35:44;42.00;34.50;27.00
65383;PMS5003;51986;52.788;41.368;2023-05-29T09:38:14;41.00;34.00;27.00
65383;PMS5003;51986;52.788;41.368;2023-05-29T09:41:03;41.00;34.00;28.00
65383;PMS5003;51986;52.788;41.368;2023-05-29T09:43:31;41.00;34.50;28.00
65383;PMS5003;51986;52.788;41.368;2023-05-29T09:45:58;41.00;34.00;28.00
65383;PMS5003;51986;52.788;41.368;2023-05-29T09:48:29;41.50;35.00;30.00
65383;PMS5003;51986;52.788;41.368;2023-05-29T09:51:00;41.50;35.00;28.50
65383;PMS5003;51986;52.788;41.368;2023-05-29T09:53:29;41.75;34.75;28.75
65383;PMS5003;51986;52.788;41.368;2023-05-29T09:56:15;41.00;34.50;29.00
65383;PMS5003;51986;52.788;41.368;2023-05-29T09:58:42;41.00;35.00;28.50
65383;PMS5003;51986;52.788;41.368;2023-05-29T10:01:10;41.00;34.50;28.00
65383;PMS5003;51986;52.788;41.368;2023-05-29T10:03:44;41.00;34.50;29.00
65383;PMS5003;51986;52.788;41.368;2023-05-29T10:06:13;40.75;34.00;27.50
65383;PMS5003;51986;52.788;41.368;2023-05-29T10:08:45;42.00;35.00;28.00
65383;PMS5003;51986;52.788;41.368;2023-05-29T10:11:13;41.50;35.00;29.50
65383;PMS5003;51986;52.788;41.368;2023-05-29T10:13:42;45.00;37.75;32.75
65383;PMS5003;51986;52.788;41.368;2023-05-29T10:16:15;43.00;36.00;30.00
65383;PMS5003;51986;52.788;41.368;2023-05-29T10:18:47;42.00;35.50;30.00
65383;PMS5003;51986;52.788;41.368;2023-05-29T10:21:19;41.00;35.00;29.00
65383;PMS5003;51986;52.788;41.368;2023-05-29T10:23:49;42.00;34.50;29.00
65383;PMS5003;51986;52.788;41.368;2023-05-29T10:28:54;46.50;38.00;32.00
65383;PMS5003;51986;52.788;41.368;2023-05-29T10:40:14;41.75;34.75;29.00
65383;PMS5003;51986;52.788;41.368;2023-05-29T10:47:54;42.00;35.00;30.00
65383;PMS5003;51986;52.788;41.368;2023-05-29T10:50:35;41.00;34.50;29.00
65383;PMS5003;51986;52.788;41.368;2023-05-29T10:53:02;40.00;34.00;28.50
65383;PMS5003;51986;52.788;41.368;2023-05-29T10:55:39;40.00;34.00;28.00
65383;PMS5003;51986;52.788;41.368;2023-05-29T10:58:08;39.25;33.50;27.50
65383;PMS5003;51986;52.788;41.368;2023-05-29T11:00:40;41.00;34.00;27.00
65383;PMS5003;51986;52.788;41.368;2023-05-29T11:03:08;39.00;34.00;27.00
65383;PMS5003;51986;52.788;41.368;2023-05-29T11:06:16;39.25;34.00;27.25
65383;PMS5003;51986;52.788;41.368;2023-05-29T11:08:52;40.00;34.50;28.00
65383;PMS5003;51986;52.788;41.368;2023-05-29T11:13:54;40.00;34.00;27.00
65383;PMS5003;51986;52.788;41.368;2023-05-29T11:18:53;41.00;35.00;28.50
65383;PMS5003;51986;52.788;41.368;2023-05-29T11:24:00;41.00;34.50;28.00
65383;PMS5003;51986;52.788;41.368;2023-05-29T11:26:32;41.00;35.00;27.75
65383;PMS5003;51986;52.788;41.368;2023-05-29T11:29:00;40.25;35.00;27.50
65383;PMS5003;51986;52.788;41.368;2023-05-29T11:31:31;41.25;34.00;28.00
65383;PMS5003;51986;52.788;41.368;2023-05-29T11:33:59;42.00;35.00;28.00
65383;PMS5003;51986;52.788;41.368;2023-05-29T11:39:15;40.50;34.00;28.00
65383;PMS5003;51986;52.788;41.368;2023-05-29T11:41:43;40.00;35.00;28.00
65383;PMS5003;51986;52.788;41.368;2023-05-29T11:44:13;39.00;34.00;27.00
65383;PMS5003;51986;52.788;41.368;2023-05-29T11:46:40;41.00;34.50;28.00
65383;PMS5003;51986;52.788;41.368;2023-05-29T11:49:07;41.00;34.50;28.00
65383;PMS5003;51986;52.788;41.368;2023-05-29T11:51:34;42.00;35.00;29.00
65383;PMS5003;51986;52.788;41.368;2023-05-29T11:54:01;42.00;34.50;28.50
65383;PMS5003;51986;52.788;41.368;2023-05-29T11:56:29;40.50;34.50;28.00
65383;PMS5003;51986;52.788;41.368;2023-05-29T11:58:58;41.75;35.00;28.75
65383;PMS5003;51986;52.788;41.368;2023-05-29T12:01:25;41.50;35.00;28.00
65383;PMS5003;51986;52.788;41.368;2023-05-29T12:03:53;41.00;35.00;28.00
65383;PMS5003;51986;52.788;41.368;2023-05-29T12:06:32;41.00;34.00;27.50
65383;PMS5003;51986;52.788;41.368;2023-05-29T12:09:01;40.50;34.25;28.50
65383;PMS5003;51986;52.788;41.368;2023-05-29T12:11:28;41.00;35.00;29.00
65383;PMS5003;51986;52.788;41.368;2023-05-29T12:13:58;42.00;35.00;29.00
65383;PMS5003;51986;52.788;41.368;2023-05-29T12:16:30;41.50;35.00;28.00
65383;PMS5003;51986;52.788;41.368;2023-05-29T12:18:59;40.50;34.00;28.75
65383;PMS5003;51986;52.788;41.368;2023-05-29T12:21:26;41.00;35.00;28.00
65383;PMS5003;51986;52.788;41.368;2023-05-29T12:23:54;40.00;34.00;27.00
65383;PMS5003;51986;52.788;41.368;2023-05-29T12:26:36;39.00;33.00;27.00
65383;PMS5003;51986;52.788;41.368;2023-05-29T12:29:03;38.50;33.00;27.00
65383;PMS5003;51986;52.788;41.368;2023-05-29T12:31:31;40.00;34.00;27.00
65383;PMS5003;51986;52.788;41.368;2023-05-29T12:34:08;41.00;34.50;27.00
65383;PMS5003;51986;52.788;41.368;2023-05-29T12:36:41;40.00;34.00;26.50
65383;PMS5003;51986;52.788;41.368;2023-05-29T12:39:09;40.75;34.50;27.00
65383;PMS5003;51986;52.788;41.368;2023-05-29T12:41:37;40.75;34.00;27.50
65383;PMS5003;51986;52.788;41.368;2023-05-29T12:44:06;42.00;35.00;27.50
65383;PMS5003;51986;52.788;41.368;2023-05-29T12:46:38;41.00;34.00;27.00
65383;PMS5003;51986;52.788;41.368;2023-05-29T12:49:13;40.00;34.00;26.50
65383;PMS5003;51986;52.788;41.368;2023-05-29T12:51:45;40.00;34.00;27.00
65383;PMS5003;51986;52.788;41.368;2023-05-29T12:54:13;41.00;34.00;27.75
65383;PMS5003;51986;52.788;41.368;2023-05-29T12:56:41;40.50;34.00;27.25
65383;PMS5003;51986;52.788;41.368;2023-05-29T12:59:10;41.00;35.00;27.00
65383;PMS5003;51986;52.788;41.368;2023-05-29T13:01:37;41.00;34.00;27.00
65383;PMS5003;51986;52.788;41.368;2023-05-29T13:04:06;41.00;34.00;27.00
65383;PMS5003;51986;52.788;41.368;2023-05-29T13:06:34;40.25;34.00;27.50
65383;PMS5003;51986;52.788;41.368;2023-05-29T13:09:02;41.00;34.00;28.00
65383;PMS5003;51986;52.788;41.368;2023-05-29T13:11:30;42.00;34.50;28.00
65383;PMS5003;51986;52.788;41.368;2023-05-29T13:13:57;41.00;35.00;28.00
65383;PMS5003;51986;52.788;41.368;2023-05-29T13:16:25;42.00;35.00;28.00
65383;PMS5003;51986;52.788;41.368;2023-05-29T13:18:52;41.00;35.00;27.00
65383;PMS5003;51986;52.788;41.368;2023-05-29T13:21:38;41.00;35.00;27.50
65383;PMS5003;51986;52.788;41.368;2023-05-29T13:24:05;40.00;34.00;26.00
65383;PMS5003;51986;52.788;41.368;2023-05-29T13:26:32;40.25;34.00;27.75
65383;PMS5003;51986;52.788;41.368;2023-05-29T13:29:02;41.00;34.50;28.50
65383;PMS5003;51986;52.788;41.368;2023-05-29T13:31:29;40.50;34.00;29.00
65383;PMS5003;51986;52.788;41.368;2023-05-29T13:33:56;41.00;34.50;28.00
65383;PMS5003;51986;52.788;41.368;2023-05-29T13:36:23;41.50;34.00;28.00
65383;PMS5003;51986;52.788;41.368;2023-05-29T13:38:50;41.00;34.50;28.00
65383;PMS5003;51986;52.788;41.368;2023-05-29T13:41:17;41.00;33.50;27.00
65383;PMS5003;51986;52.788;41.368;2023-05-29T13:43:45;41.00;34.00;26.50
65383;PMS5003;51986;52.788;41.368;2023-05-29T13:46:12;39.00;33.50;26.00
65383;PMS5003;51986;52.788;41.368;2023-05-29T13:48:39;39.00;33.00;27.00
65383;PMS5003;51986;52.788;41.368;2023-05-29T13:51:06;39.50;33.50;28.00
65383;PMS5003;51986;52.788;41.368;2023-05-29T13:53:33;40.00;35.00;28.00
65383;PMS5003;51986;52.788;41.368;2023-05-29T13:56:00;39.00;33.00;27.00
65383;PMS5003;51986;52.788;41.368;2023-05-29T13:58:30;39.00;33.00;26.00
65383;PMS5003;51986;52.788;41.368;2023-05-29T14:00:58;39.00;34.00;26.50
65383;PMS5003;51986;52.788;41.368;2023-05-29T14:03:44;39.00;33.75;26.50
65383;PMS5003;51986;52.788;41.368;2023-05-29T14:06:15;40.00;34.00;28.00
65383;PMS5003;51986;52.788;41.368;2023-05-29T14:08:43;40.75;34.75;28.75
65383;PMS5003;51986;52.788;41.368;2023-05-29T14:11:15;41.00;34.00;28.00
65383;PMS5003;51986;52.788;41.368;2023-05-29T14:13:42;40.50;34.00;28.25
65383;PMS5003;51986;52.788;41.368;2023-05-29T14:16:09;41.00;34.00;28.00
65383;PMS5003;51986;52.788;41.368;2023-05-29T14:18:43;39.00;33.50;27.00
65383;PMS5003;51986;52.788;41.368;2023-05-29T14:21:10;39.00;33.00;27.00
65383;PMS5003;51986;52.788;41.368;2023-05-29T14:23:37;40.00;33.50;27.00